Time,TemperatureF,DewpointF,PressureIn,WindDirection,WindDirectionDegrees,WindSpeedMPH,WindSpeedGustMPH,Humidity,HourlyPrecipIn,Conditions,Clouds,dailyrainin,SoftwareType,DateUTC
2013-03-11 00:00:00,35.0,31.0,30.33,South,185,1.0,2.0,85,0.00,,---,0.00,VWS V14.01,2013-03-11 04:00:00,
2013-03-11 00:03:00,35.0,31.0,30.33,SSE,151,3.0,3.0,85,0.00,,---,0.00,VWS V14.01,2013-03-11 04:03:00,
2013-03-11 00:05:00,35.0,31.0,30.33,SE,142,1.0,3.0,85,0.00,,---,0.00,VWS V14.01,2013-03-11 04:05:00,
2013-03-11 00:07:00,35.0,31.0,30.33,South,170,0.0,2.0,85,0.00,,---,0.00,VWS V14.01,2013-03-11 04:07:00,
2013-03-11 00:12:00,35.0,31.2,30.32,South,171,0.0,0.0,86,0.00,,---,0.00,VWS V14.01,2013-03-11 04:12:00,
2013-03-11 00:18:00,35.0,31.2,30.33,SSW,197,0.0,0.0,86,0.00,,---,0.00,VWS V14.01,2013-03-11 04:18:00,
2013-03-11 00:23:00,35.0,31.2,30.33,SSW,194,0.0,2.0,86,0.00,,---,0.00,VWS V14.01,2013-03-11 04:23:00,
2013-03-11 00:28:00,35.0,31.2,30.32,SSW,194,0.0,0.0,86,0.00,,---,0.00,VWS V14.01,2013-03-11 04:28:00,
2013-03-11 00:33:00,35.0,31.2,30.32,SE,125,1.0,1.0,86,0.00,,---,0.00,VWS V14.01,2013-03-11 04:33:00,
2013-03-11 00:38:00,35.0,31.2,30.31,SSE,154,2.0,2.0,86,0.00,,---,0.00,VWS V14.01,2013-03-11 04:38:00,
2013-03-11 00:43:00,35.0,31.2,30.31,East,94,0.0,0.0,86,0.00,,---,0.00,VWS V14.01,2013-03-11 04:43:00,
2013-03-11 00:48:00,35.0,31.2,30.32,SSE,159,0.0,3.0,86,0.00,,---,0.00,VWS V14.01,2013-03-11 04:48:00,
2013-03-11 00:53:00,35.0,31.2,30.32,SSE,167,0.0,0.0,86,0.00,,---,0.00,VWS V14.01,2013-03-11 04:53:00,
2013-03-11 00:59:00,35.0,31.2,30.32,SSE,167,0.0,0.0,86,0.00,,---,0.00,VWS V14.01,2013-03-11 04:59:00,
2013-03-11 01:04:00,35.0,31.2,30.32,SSE,167,0.0,0.0,86,0.00,,---,0.00,VWS V14.01,2013-03-11 05:04:00,
2013-03-11 01:10:00,35.0,31.2,30.33,SSE,167,0.0,0.0,86,0.00,,---,0.00,VWS V14.01,2013-03-11 05:10:00,
2013-03-11 01:15:00,35.0,31.5,30.33,SSE,159,0.0,0.0,87,0.00,,---,0.00,VWS V14.01,2013-03-11 05:15:00,
2013-03-11 01:20:00,35.0,31.5,30.33,SSE,159,2.0,2.0,87,0.00,,---,0.00,VWS V14.01,2013-03-11 05:20:00,
2013-03-11 01:25:00,35.2,31.7,30.32,SSE,168,0.0,3.0,87,0.00,,---,0.00,VWS V14.01,2013-03-11 05:25:00,
2013-03-11 01:30:00,35.2,31.7,30.31,SSE,167,1.0,3.0,87,0.00,,---,0.00,VWS V14.01,2013-03-11 05:30:00,
2013-03-11 01:35:00,35.2,31.7,30.31,SSE,167,0.0,0.0,87,0.00,,---,0.00,VWS V14.01,2013-03-11 05:35:00,
2013-03-11 01:42:00,35.2,31.7,30.30,ESE,114,0.0,2.0,87,0.00,,---,0.00,VWS V14.01,2013-03-11 05:42:00,
2013-03-11 01:48:00,35.2,31.7,30.31,WNW,294,4.0,4.0,87,0.00,,---,0.00,VWS V14.01,2013-03-11 05:48:00,
2013-03-11 01:54:00,35.2,31.7,30.32,SW,224,0.0,1.0,87,0.00,,---,0.00,VWS V14.01,2013-03-11 05:54:00,
2013-03-11 02:00:00,35.2,31.7,30.31,SSW,204,2.0,4.0,87,0.00,,---,0.00,VWS V14.01,2013-03-11 06:00:00,
2013-03-11 02:05:00,35.2,31.7,30.31,SSW,204,0.0,2.0,87,0.00,,---,0.00,VWS V14.01,2013-03-11 06:05:00,
2013-03-11 02:10:00,35.2,31.7,30.30,SSW,204,0.0,2.0,87,0.00,,---,0.00,VWS V14.01,2013-03-11 06:10:00,
2013-03-11 02:15:00,35.2,31.7,30.30,SSE,165,2.0,3.0,87,0.00,,---,0.00,VWS V14.01,2013-03-11 06:15:00,
2013-03-11 02:20:00,35.2,31.7,30.29,SSW,204,0.0,2.0,87,0.00,,---,0.00,VWS V14.01,2013-03-11 06:20:00,
2013-03-11 02:25:00,35.2,31.7,30.29,East,101,0.0,1.0,87,0.00,,---,0.00,VWS V14.01,2013-03-11 06:25:00,
2013-03-11 02:30:00,35.2,31.7,30.29,SSE,149,0.0,0.0,87,0.00,,---,0.00,VWS V14.01,2013-03-11 06:30:00,
2013-03-11 02:35:00,35.2,31.7,30.29,SSE,164,1.0,2.0,87,0.00,,---,0.00,VWS V14.01,2013-03-11 06:35:00,
2013-03-11 02:42:00,35.2,31.7,30.29,South,184,1.0,1.0,87,0.00,,---,0.00,VWS V14.01,2013-03-11 06:42:00,
2013-03-11 02:47:00,35.3,31.8,30.29,SSW,200,1.0,3.0,87,0.00,,---,0.00,VWS V14.01,2013-03-11 06:47:00,
2013-03-11 02:52:00,35.3,31.8,30.30,SSW,196,0.0,0.0,87,0.00,,---,0.00,VWS V14.01,2013-03-11 06:52:00,
2013-03-11 02:57:00,35.3,31.8,30.30,SSE,166,0.0,0.0,87,0.00,,---,0.00,VWS V14.01,2013-03-11 06:57:00,
2013-03-11 03:02:00,35.3,31.8,30.29,SSE,156,0.0,0.0,87,0.00,,---,0.00,VWS V14.01,2013-03-11 07:02:00,
2013-03-11 03:07:00,35.3,31.8,30.29,SSE,153,0.0,3.0,87,0.00,,---,0.00,VWS V14.01,2013-03-11 07:07:00,
2013-03-11 03:12:00,35.3,31.8,30.29,SSW,198,0.0,1.0,87,0.00,,---,0.00,VWS V14.01,2013-03-11 07:12:00,
2013-03-11 03:17:00,35.5,32.0,30.29,South,186,3.0,4.0,87,0.00,,---,0.00,VWS V14.01,2013-03-11 07:17:00,
2013-03-11 03:23:00,35.5,32.0,30.29,SSW,200,0.0,1.0,87,0.00,,---,0.00,VWS V14.01,2013-03-11 07:23:00,
2013-03-11 03:29:00,35.5,32.0,30.28,SSW,200,0.0,0.0,87,0.00,,---,0.00,VWS V14.01,2013-03-11 07:29:00,
2013-03-11 03:35:00,35.5,32.0,30.28,SSW,200,0.0,0.0,87,0.00,,---,0.00,VWS V14.01,2013-03-11 07:35:00,
2013-03-11 03:40:00,35.5,32.0,30.28,SSW,200,0.0,0.0,87,0.00,,---,0.00,VWS V14.01,2013-03-11 07:40:00,
2013-03-11 03:45:00,35.5,32.0,30.28,SSW,200,0.0,0.0,87,0.00,,---,0.00,VWS V14.01,2013-03-11 07:45:00,
2013-03-11 03:52:00,35.5,32.0,30.27,SSE,152,1.0,2.0,87,0.00,,---,0.00,VWS V14.01,2013-03-11 07:52:00,
2013-03-11 03:57:00,35.5,32.0,30.27,SSE,152,1.0,2.0,87,0.00,,---,0.00,VWS V14.01,2013-03-11 07:57:00,
2013-03-11 04:02:00,35.5,32.0,30.27,SSE,152,0.0,0.0,87,0.00,,---,0.00,VWS V14.01,2013-03-11 08:02:00,
2013-03-11 04:07:00,35.5,32.3,30.27,SSE,152,0.0,0.0,88,0.00,,---,0.00,VWS V14.01,2013-03-11 08:07:00,
2013-03-11 04:12:00,35.5,32.3,30.27,SSE,152,0.0,0.0,88,0.00,,---,0.00,VWS V14.01,2013-03-11 08:12:00,
2013-03-11 04:17:00,35.5,32.3,30.27,SSE,152,1.0,2.0,88,0.00,,---,0.00,VWS V14.01,2013-03-11 08:17:00,
2013-03-11 04:22:00,35.5,32.3,30.28,SSE,152,0.0,0.0,88,0.00,,---,0.00,VWS V14.01,2013-03-11 08:22:00,
2013-03-11 04:27:00,35.5,32.3,30.27,SSE,152,0.0,0.0,88,0.00,,---,0.00,VWS V14.01,2013-03-11 08:27:00,
2013-03-11 04:33:00,35.5,32.6,30.27,SSE,152,0.0,0.0,89,0.00,,---,0.00,VWS V14.01,2013-03-11 08:33:00,
2013-03-11 04:39:00,35.5,32.6,30.27,SSE,152,0.0,0.0,89,0.00,,---,0.00,VWS V14.01,2013-03-11 08:39:00,
2013-03-11 04:45:00,35.5,32.6,30.26,SSE,152,0.0,0.0,89,0.00,,---,0.00,VWS V14.01,2013-03-11 08:45:00,
2013-03-11 04:51:00,35.3,32.4,30.27,SSE,152,0.0,0.0,89,0.00,,---,0.00,VWS V14.01,2013-03-11 08:51:00,
2013-03-11 04:57:00,35.3,32.4,30.27,SSE,152,0.0,0.0,89,0.00,,---,0.00,VWS V14.01,2013-03-11 08:57:00,
2013-03-11 05:02:00,35.3,32.4,30.27,SSE,152,0.0,0.0,89,0.00,,---,0.00,VWS V14.01,2013-03-11 09:02:00,
2013-03-11 05:07:00,35.3,32.7,30.27,SSE,152,0.0,0.0,90,0.00,,---,0.00,VWS V14.01,2013-03-11 09:07:00,
2013-03-11 05:12:00,35.3,32.7,30.27,SSE,152,0.0,0.0,90,0.00,,---,0.00,VWS V14.01,2013-03-11 09:12:00,
2013-03-11 05:18:00,35.3,32.7,30.27,SSE,152,0.0,0.0,90,0.00,,---,0.00,VWS V14.01,2013-03-11 09:18:00,
2013-03-11 05:23:00,35.3,32.7,30.27,SSE,152,0.0,0.0,90,0.00,,---,0.00,VWS V14.01,2013-03-11 09:23:00,
2013-03-11 05:28:00,35.3,32.7,30.26,SSE,152,0.0,0.0,90,0.00,,---,0.00,VWS V14.01,2013-03-11 09:28:00,
2013-03-11 05:33:00,35.3,32.7,30.27,SSE,152,0.0,0.0,90,0.00,,---,0.00,VWS V14.01,2013-03-11 09:33:00,
2013-03-11 05:39:00,35.3,32.9,30.27,SSE,152,0.0,0.0,91,0.00,,---,0.00,VWS V14.01,2013-03-11 09:39:00,
2013-03-11 05:44:00,35.3,32.9,30.27,SSE,152,0.0,0.0,91,0.00,,---,0.00,VWS V14.01,2013-03-11 09:44:00,
2013-03-11 05:49:00,35.2,32.8,30.26,SSE,152,0.0,0.0,91,0.00,,---,0.00,VWS V14.01,2013-03-11 09:49:00,
2013-03-11 05:54:00,35.2,32.8,30.26,SSE,152,0.0,0.0,91,0.00,,---,0.00,VWS V14.01,2013-03-11 09:54:00,
2013-03-11 05:59:00,35.2,32.8,30.26,SSE,152,0.0,0.0,91,0.00,,---,0.00,VWS V14.01,2013-03-11 09:59:00,
2013-03-11 06:04:00,35.2,32.8,30.26,SSE,152,0.0,0.0,91,0.00,,---,0.00,VWS V14.01,2013-03-11 10:04:00,
2013-03-11 06:09:00,35.2,32.8,30.26,SSE,152,0.0,0.0,91,0.00,,---,0.00,VWS V14.01,2013-03-11 10:09:00,
2013-03-11 06:14:00,35.2,33.1,30.26,SSE,152,0.0,0.0,92,0.00,,---,0.00,VWS V14.01,2013-03-11 10:14:00,
2013-03-11 06:19:00,35.0,32.9,30.26,SSE,152,0.0,0.0,92,0.00,,---,0.00,VWS V14.01,2013-03-11 10:19:00,
2013-03-11 06:25:00,35.2,33.1,30.26,SSE,152,0.0,0.0,92,0.00,,---,0.00,VWS V14.01,2013-03-11 10:25:00,
2013-03-11 06:31:00,35.2,33.1,30.25,SSE,152,0.0,0.0,92,0.00,,---,0.00,VWS V14.01,2013-03-11 10:31:00,
2013-03-11 06:37:00,35.2,33.1,30.25,SSE,152,0.0,0.0,92,0.00,,---,0.00,VWS V14.01,2013-03-11 10:37:00,
2013-03-11 06:42:00,35.2,33.1,30.25,SSE,152,0.0,0.0,92,0.00,,---,0.00,VWS V14.01,2013-03-11 10:42:00,
2013-03-11 06:48:00,35.2,33.1,30.26,SSE,152,0.0,0.0,92,0.00,,---,0.00,VWS V14.01,2013-03-11 10:48:00,
2013-03-11 06:54:00,35.0,32.9,30.25,SSE,152,0.0,0.0,92,0.00,,---,0.00,VWS V14.01,2013-03-11 10:54:00,
2013-03-11 06:59:00,35.0,32.9,30.26,SSE,152,0.0,0.0,92,0.00,,---,0.00,VWS V14.01,2013-03-11 10:59:00,
2013-03-11 07:04:00,35.0,32.9,30.26,SSE,152,0.0,0.0,92,0.00,,---,0.00,VWS V14.01,2013-03-11 11:04:00,
2013-03-11 07:09:00,35.2,33.1,30.26,SSE,152,0.0,0.0,92,0.00,,---,0.00,VWS V14.01,2013-03-11 11:09:00,
2013-03-11 07:15:00,35.2,33.1,30.26,SSE,152,0.0,0.0,92,0.00,,---,0.00,VWS V14.01,2013-03-11 11:15:00,
2013-03-11 07:20:00,35.2,33.1,30.26,SSE,152,0.0,0.0,92,0.00,,---,0.00,VWS V14.01,2013-03-11 11:20:00,
2013-03-11 07:25:00,35.2,33.1,30.25,SSE,152,0.0,0.0,92,0.00,,---,0.00,VWS V14.01,2013-03-11 11:25:00,
2013-03-11 07:30:00,35.3,33.2,30.25,SSE,152,0.0,0.0,92,0.00,,---,0.00,VWS V14.01,2013-03-11 11:30:00,
2013-03-11 07:35:00,35.3,33.2,30.25,SSE,152,0.0,0.0,92,0.00,,---,0.00,VWS V14.01,2013-03-11 11:35:00,
2013-03-11 07:41:00,35.5,33.7,30.26,SSE,152,0.0,0.0,93,0.00,,---,0.00,VWS V14.01,2013-03-11 11:41:00,
2013-03-11 07:47:00,35.6,33.8,30.25,SSE,152,0.0,0.0,93,0.00,,---,0.00,VWS V14.01,2013-03-11 11:47:00,
2013-03-11 07:53:00,35.6,33.8,30.25,SSE,152,0.0,0.0,93,0.00,,---,0.00,VWS V14.01,2013-03-11 11:53:00,
2013-03-11 07:58:00,35.8,34.0,30.25,SSE,152,0.0,0.0,93,0.00,,---,0.00,VWS V14.01,2013-03-11 11:58:00,
2013-03-11 08:03:00,35.8,34.0,30.25,SSE,152,0.0,0.0,93,0.00,,---,0.00,VWS V14.01,2013-03-11 12:03:00,
2013-03-11 08:08:00,35.9,34.1,30.25,SSE,156,1.0,1.0,93,0.00,,---,0.00,VWS V14.01,2013-03-11 12:08:00,
2013-03-11 08:13:00,36.0,34.2,30.25,SSE,156,0.0,0.0,93,0.00,,---,0.00,VWS V14.01,2013-03-11 12:13:00,
2013-03-11 08:18:00,36.0,34.2,30.26,SSE,156,0.0,2.0,93,0.00,,---,0.00,VWS V14.01,2013-03-11 12:18:00,
2013-03-11 08:23:00,36.2,34.4,30.26,SSE,156,0.0,1.0,93,0.00,,---,0.00,VWS V14.01,2013-03-11 12:23:00,
2013-03-11 08:29:00,36.5,34.7,30.26,SSE,156,0.0,2.0,93,0.00,,---,0.00,VWS V14.01,2013-03-11 12:29:00,
2013-03-11 08:34:00,36.6,34.8,30.26,SSE,165,0.0,3.0,93,0.00,,---,0.00,VWS V14.01,2013-03-11 12:34:00,
2013-03-11 08:39:00,36.8,35.0,30.26,SSE,165,0.0,0.0,93,0.00,,---,0.00,VWS V14.01,2013-03-11 12:39:00,
2013-03-11 08:44:00,36.9,35.1,30.25,SSE,165,0.0,0.0,93,0.00,,---,0.00,VWS V14.01,2013-03-11 12:44:00,
2013-03-11 08:49:00,37.0,35.2,30.26,SSE,165,0.0,0.0,93,0.00,,---,0.00,VWS V14.01,2013-03-11 12:49:00,
2013-03-11 08:54:00,37.2,35.4,30.26,SSE,165,0.0,0.0,93,0.00,,---,0.00,VWS V14.01,2013-03-11 12:54:00,
2013-03-11 08:59:00,37.5,35.7,30.26,SSE,165,0.0,0.0,93,0.00,,---,0.00,VWS V14.01,2013-03-11 12:59:00,
2013-03-11 09:04:00,37.6,35.8,30.26,SSE,165,0.0,0.0,93,0.00,,---,0.00,VWS V14.01,2013-03-11 13:04:00,
2013-03-11 09:09:00,37.9,36.1,30.26,SSE,165,0.0,0.0,93,0.00,,---,0.00,VWS V14.01,2013-03-11 13:09:00,
2013-03-11 09:14:00,38.0,35.9,30.26,SSE,165,3.0,3.0,92,0.00,,---,0.00,VWS V14.01,2013-03-11 13:14:00,
2013-03-11 09:19:00,38.2,36.1,30.26,SSE,160,0.0,1.0,92,0.00,,---,0.00,VWS V14.01,2013-03-11 13:19:00,
2013-03-11 09:24:00,38.3,36.2,30.27,SSE,167,0.0,0.0,92,0.00,,---,0.00,VWS V14.01,2013-03-11 13:24:00,
2013-03-11 09:29:00,38.6,36.5,30.26,SSE,167,0.0,2.0,92,0.00,,---,0.00,VWS V14.01,2013-03-11 13:29:00,
2013-03-11 09:34:00,38.8,36.4,30.26,SSE,165,1.0,4.0,91,0.00,,---,0.00,VWS V14.01,2013-03-11 13:34:00,
2013-03-11 09:39:00,39.1,36.4,30.26,South,180,0.0,1.0,90,0.00,,---,0.00,VWS V14.01,2013-03-11 13:39:00,
2013-03-11 09:44:00,39.2,36.2,30.26,SSW,206,2.0,2.0,89,0.00,,---,0.00,VWS V14.01,2013-03-11 13:44:00,
2013-03-11 09:49:00,39.3,36.3,30.26,South,190,0.0,2.0,89,0.00,,---,0.00,VWS V14.01,2013-03-11 13:49:00,
2013-03-11 09:54:00,39.6,36.6,30.26,South,190,0.0,2.0,89,0.00,,---,0.00,VWS V14.01,2013-03-11 13:54:00,
2013-03-11 09:59:00,39.8,36.5,30.26,SSE,160,1.0,3.0,88,0.00,,---,0.00,VWS V14.01,2013-03-11 13:59:00,
2013-03-11 10:05:00,40.1,36.5,30.27,SSE,162,3.0,3.0,87,0.00,,---,0.00,VWS V14.01,2013-03-11 14:05:00,
2013-03-11 10:10:00,40.2,36.7,30.26,SSE,161,0.0,0.0,87,0.00,,---,0.00,VWS V14.01,2013-03-11 14:10:00,
2013-03-11 10:15:00,40.5,36.7,30.26,SE,134,0.0,2.0,86,0.00,,---,0.00,VWS V14.01,2013-03-11 14:15:00,
2013-03-11 10:20:00,40.6,36.8,30.26,SSE,165,0.0,3.0,86,0.00,,---,0.00,VWS V14.01,2013-03-11 14:20:00,
2013-03-11 10:25:00,41.1,37.2,30.27,South,175,0.0,0.0,86,0.00,,---,0.00,VWS V14.01,2013-03-11 14:25:00,
2013-03-11 10:30:00,41.3,37.1,30.27,SSE,157,0.0,0.0,85,0.00,,---,0.00,VWS V14.01,2013-03-11 14:30:00,
2013-03-11 10:36:00,41.6,37.1,30.27,SSE,167,0.0,2.0,84,0.00,,---,0.00,VWS V14.01,2013-03-11 14:36:00,
2013-03-11 10:41:00,41.9,37.1,30.27,SSE,167,0.0,2.0,83,0.00,,---,0.00,VWS V14.01,2013-03-11 14:41:00,
2013-03-11 10:47:00,42.3,37.5,30.26,SSE,167,0.0,0.0,83,0.00,,---,0.00,VWS V14.01,2013-03-11 14:47:00,
2013-03-11 10:53:00,42.6,37.2,30.26,SSE,168,0.0,3.0,81,0.00,,---,0.00,VWS V14.01,2013-03-11 14:53:00,
2013-03-11 10:58:00,42.8,37.4,30.27,SSE,168,0.0,0.0,81,0.00,,---,0.00,VWS V14.01,2013-03-11 14:58:00,
2013-03-11 11:03:00,43.2,37.5,30.27,South,178,0.0,1.0,80,0.00,,---,0.00,VWS V14.01,2013-03-11 15:03:00,
2013-03-11 11:08:00,43.2,37.5,30.26,ESE,103,0.0,0.0,80,0.00,,---,0.00,VWS V14.01,2013-03-11 15:08:00,
2013-03-11 11:13:00,43.5,37.8,30.26,South,176,2.0,2.0,80,0.00,,---,0.00,VWS V14.01,2013-03-11 15:13:00,
2013-03-11 11:18:00,43.8,38.0,30.26,South,186,2.0,2.0,80,0.00,,---,0.00,VWS V14.01,2013-03-11 15:18:00,
2013-03-11 11:23:00,44.3,38.2,30.26,NE,53,0.0,5.0,79,0.00,,---,0.00,VWS V14.01,2013-03-11 15:23:00,
2013-03-11 11:28:00,44.8,38.4,30.26,South,170,0.0,2.0,78,0.00,,---,0.00,VWS V14.01,2013-03-11 15:28:00,
2013-03-11 11:34:00,45.1,38.3,30.26,SSE,167,1.0,1.0,77,0.00,,---,0.00,VWS V14.01,2013-03-11 15:34:00,
2013-03-11 11:39:00,45.1,38.3,30.26,SSE,163,0.0,0.0,77,0.00,,---,0.00,VWS V14.01,2013-03-11 15:39:00,
2013-03-11 11:45:00,45.4,38.3,30.25,SSE,152,3.0,3.0,76,0.00,,---,0.00,VWS V14.01,2013-03-11 15:45:00,
2013-03-11 11:50:00,45.5,38.4,30.24,SSE,147,0.0,2.0,76,0.00,,---,0.00,VWS V14.01,2013-03-11 15:50:00,
2013-03-11 11:55:00,45.7,38.6,30.24,SSW,204,0.0,1.0,76,0.00,,---,0.00,VWS V14.01,2013-03-11 15:55:00,
2013-03-11 12:00:00,46.0,38.9,30.24,SSW,203,1.0,1.0,76,0.00,,---,0.00,VWS V14.01,2013-03-11 16:00:00,
2013-03-11 12:05:00,46.1,38.6,30.23,South,189,2.0,3.0,75,0.00,,---,0.00,VWS V14.01,2013-03-11 16:05:00,
2013-03-11 12:12:00,46.4,38.9,30.23,South,187,0.0,1.0,75,0.00,,---,0.00,VWS V14.01,2013-03-11 16:12:00,
2013-03-11 12:17:00,46.4,38.6,30.23,SE,134,3.0,6.0,74,0.00,,---,0.00,VWS V14.01,2013-03-11 16:17:00,
2013-03-11 12:23:00,46.7,38.9,30.22,SW,215,0.0,1.0,74,0.00,,---,0.00,VWS V14.01,2013-03-11 16:23:00,
2013-03-11 12:28:00,47.0,38.8,30.23,SSE,168,4.0,6.0,73,0.00,,---,0.00,VWS V14.01,2013-03-11 16:28:00,
2013-03-11 12:33:00,47.4,39.2,30.23,ESE,123,7.0,7.0,73,0.00,,---,0.00,VWS V14.01,2013-03-11 16:33:00,
2013-03-11 12:38:00,47.9,39.3,30.23,SE,126,2.0,9.0,72,0.00,,---,0.00,VWS V14.01,2013-03-11 16:38:00,
2013-03-11 12:43:00,48.5,39.2,30.23,SSE,162,4.0,4.0,70,0.00,,---,0.00,VWS V14.01,2013-03-11 16:43:00,
2013-03-11 12:49:00,49.1,39.0,30.23,SSE,155,6.0,6.0,68,0.00,,---,0.00,VWS V14.01,2013-03-11 16:49:00,
2013-03-11 12:54:00,49.1,39.0,30.24,SSW,202,4.0,4.0,68,0.00,,---,0.00,VWS V14.01,2013-03-11 16:54:00,
2013-03-11 12:59:00,49.1,39.0,30.23,SSE,158,3.0,5.0,68,0.00,,---,0.00,VWS V14.01,2013-03-11 16:59:00,
2013-03-11 13:04:00,49.1,39.0,30.23,SW,226,2.0,4.0,68,0.00,,---,0.00,VWS V14.01,2013-03-11 17:04:00,
2013-03-11 13:10:00,49.4,39.3,30.23,SSW,192,1.0,6.0,68,0.00,,---,0.00,VWS V14.01,2013-03-11 17:10:00,
2013-03-11 13:15:00,49.4,39.3,30.22,SSE,162,3.0,6.0,68,0.00,,---,0.00,VWS V14.01,2013-03-11 17:15:00,
2013-03-11 13:22:00,49.8,39.7,30.22,NE,55,0.0,5.0,68,0.00,,---,0.00,VWS V14.01,2013-03-11 17:22:00,
2013-03-11 13:28:00,49.9,39.4,30.21,SSE,159,2.0,5.0,67,0.00,,---,0.00,VWS V14.01,2013-03-11 17:28:00,
2013-03-11 13:33:00,50.1,39.2,30.21,South,184,3.0,10.0,66,0.00,,---,0.00,VWS V14.01,2013-03-11 17:33:00,
2013-03-11 13:38:00,49.9,38.6,30.21,SE,137,0.0,6.0,65,0.00,,---,0.00,VWS V14.01,2013-03-11 17:38:00,
2013-03-11 13:44:00,50.4,39.5,30.21,South,176,0.0,3.0,66,0.00,,---,0.00,VWS V14.01,2013-03-11 17:44:00,
2013-03-11 13:49:00,50.8,39.9,30.21,South,188,1.0,2.0,66,0.00,,---,0.00,VWS V14.01,2013-03-11 17:49:00,
2013-03-11 13:55:00,51.1,39.8,30.21,South,191,0.0,0.0,65,0.00,,---,0.00,VWS V14.01,2013-03-11 17:55:00,
2013-03-11 14:00:00,51.3,39.5,30.21,SSW,205,2.0,4.0,64,0.00,,---,0.00,VWS V14.01,2013-03-11 18:00:00,
2013-03-11 14:05:00,51.6,39.8,30.20,South,187,4.0,5.0,64,0.00,,---,0.00,VWS V14.01,2013-03-11 18:05:00,
2013-03-11 14:10:00,51.4,39.7,30.20,SSE,148,2.0,3.0,64,0.00,,---,0.00,VWS V14.01,2013-03-11 18:10:00,
2013-03-11 14:17:00,51.9,40.1,30.19,South,184,0.0,3.0,64,0.00,,---,0.00,VWS V14.01,2013-03-11 18:17:00,
2013-03-11 14:22:00,52.5,39.9,30.19,South,179,0.0,5.0,62,0.00,,---,0.00,VWS V14.01,2013-03-11 18:22:00,
2013-03-11 14:28:00,52.6,40.8,30.19,South,169,0.0,5.0,64,0.00,,---,0.00,VWS V14.01,2013-03-11 18:28:00,
2013-03-11 14:34:00,52.6,39.5,30.19,SSW,203,3.0,5.0,61,0.00,,---,0.00,VWS V14.01,2013-03-11 18:34:00,
2013-03-11 14:40:00,52.6,40.4,30.19,SSE,167,4.0,5.0,63,0.00,,---,0.00,VWS V14.01,2013-03-11 18:40:00,
2013-03-11 14:45:00,52.8,40.2,30.18,SSE,153,0.0,4.0,62,0.00,,---,0.00,VWS V14.01,2013-03-11 18:45:00,
2013-03-11 14:50:00,52.6,40.0,30.19,South,175,3.0,4.0,62,0.00,,---,0.00,VWS V14.01,2013-03-11 18:50:00,
2013-03-11 14:55:00,52.6,40.4,30.18,SSE,157,4.0,4.0,63,0.00,,---,0.00,VWS V14.01,2013-03-11 18:55:00,
2013-03-11 15:00:00,52.6,40.4,30.18,SSW,192,3.0,4.0,63,0.00,,---,0.00,VWS V14.01,2013-03-11 19:00:00,
2013-03-11 15:05:00,52.3,40.1,30.18,SSE,168,3.0,5.0,63,0.00,,---,0.00,VWS V14.01,2013-03-11 19:05:00,
2013-03-11 15:10:00,52.3,40.1,30.18,South,175,7.0,9.0,63,0.00,,---,0.00,VWS V14.01,2013-03-11 19:10:00,
2013-03-11 15:16:00,52.0,40.2,30.18,South,171,2.0,6.0,64,0.00,,---,0.00,VWS V14.01,2013-03-11 19:16:00,
2013-03-11 15:22:00,52.2,40.0,30.18,South,179,9.0,11.0,63,0.00,,---,0.00,VWS V14.01,2013-03-11 19:22:00,
2013-03-11 15:27:00,51.9,40.1,30.18,South,181,5.0,5.0,64,0.00,,---,0.00,VWS V14.01,2013-03-11 19:27:00,
2013-03-11 15:32:00,51.6,39.8,30.18,North,355,1.0,7.0,64,0.00,,---,0.00,VWS V14.01,2013-03-11 19:32:00,
2013-03-11 15:37:00,51.3,40.0,30.18,SSW,213,2.0,12.0,65,0.00,,---,0.00,VWS V14.01,2013-03-11 19:37:00,
2013-03-11 15:43:00,51.4,40.0,30.17,SSE,168,2.0,3.0,65,0.00,,---,0.00,VWS V14.01,2013-03-11 19:43:00,
2013-03-11 15:49:00,51.6,40.2,30.17,South,178,0.0,7.0,65,0.00,,---,0.00,VWS V14.01,2013-03-11 19:49:00,
2013-03-11 15:55:00,51.6,40.2,30.17,SSE,168,1.0,5.0,65,0.00,,---,0.00,VWS V14.01,2013-03-11 19:55:00,
2013-03-11 16:00:00,51.4,40.4,30.17,SSE,161,0.0,3.0,66,0.00,,---,0.00,VWS V14.01,2013-03-11 20:00:00,
2013-03-11 16:06:00,51.6,40.6,30.17,SE,132,0.0,1.0,66,0.00,,---,0.00,VWS V14.01,2013-03-11 20:06:00,
2013-03-11 16:12:00,51.4,40.4,30.17,SSE,151,0.0,5.0,66,0.00,,---,0.00,VWS V14.01,2013-03-11 20:12:00,
2013-03-11 16:17:00,51.4,40.0,30.17,SE,128,2.0,7.0,65,0.00,,---,0.00,VWS V14.01,2013-03-11 20:17:00,
2013-03-11 16:22:00,51.3,40.0,30.17,SSW,213,2.0,11.0,65,0.00,,---,0.00,VWS V14.01,2013-03-11 20:22:00,
2013-03-11 16:27:00,50.8,39.9,30.17,ENE,70,0.0,7.0,66,0.00,,---,0.00,VWS V14.01,2013-03-11 20:27:00,
2013-03-11 16:32:00,50.7,39.8,30.17,South,188,3.0,7.0,66,0.00,,---,0.00,VWS V14.01,2013-03-11 20:32:00,
2013-03-11 16:37:00,50.4,39.9,30.17,NNE,29,0.0,5.0,67,0.00,,---,0.00,VWS V14.01,2013-03-11 20:37:00,
2013-03-11 16:42:00,50.1,39.6,30.16,SE,140,1.0,8.0,67,0.00,,---,0.00,VWS V14.01,2013-03-11 20:42:00,
2013-03-11 16:47:00,49.9,39.8,30.16,South,169,3.0,3.0,68,0.00,,---,0.00,VWS V14.01,2013-03-11 20:47:00,
2013-03-11 16:52:00,49.8,39.7,30.16,SSE,150,3.0,4.0,68,0.00,,---,0.00,VWS V14.01,2013-03-11 20:52:00,
2013-03-11 16:57:00,49.8,39.7,30.16,SSE,167,0.0,3.0,68,0.00,,---,0.00,VWS V14.01,2013-03-11 20:57:00,
2013-03-11 17:02:00,49.6,39.5,30.16,South,171,2.0,10.0,68,0.00,,---,0.00,VWS V14.01,2013-03-11 21:02:00,
2013-03-11 17:08:00,49.4,39.3,30.16,South,191,3.0,10.0,68,0.00,,---,0.00,VWS V14.01,2013-03-11 21:08:00,
2013-03-11 17:13:00,49.1,39.0,30.16,South,172,3.0,3.0,68,0.00,,---,0.00,VWS V14.01,2013-03-11 21:13:00,
2013-03-11 17:18:00,49.1,39.8,30.16,East,89,4.0,12.0,70,0.00,,---,0.00,VWS V14.01,2013-03-11 21:18:00,
2013-03-11 17:23:00,48.9,39.6,30.15,SSE,161,0.0,5.0,70,0.00,,---,0.00,VWS V14.01,2013-03-11 21:23:00,
2013-03-11 17:28:00,48.8,39.8,30.15,SSE,164,7.0,10.0,71,0.00,,---,0.00,VWS V14.01,2013-03-11 21:28:00,
2013-03-11 17:33:00,48.8,39.8,30.15,SSE,166,1.0,5.0,71,0.00,,---,0.00,VWS V14.01,2013-03-11 21:33:00,
2013-03-11 17:39:00,48.6,39.6,30.15,South,175,0.0,5.0,71,0.00,,---,0.00,VWS V14.01,2013-03-11 21:39:00,
2013-03-11 17:44:00,48.6,40.0,30.15,SSW,211,2.0,2.0,72,0.00,,---,0.00,VWS V14.01,2013-03-11 21:44:00,
2013-03-11 17:49:00,48.5,40.2,30.15,SSE,155,2.0,5.0,73,0.00,,---,0.00,VWS V14.01,2013-03-11 21:49:00,
2013-03-11 17:54:00,48.5,40.2,30.15,East,84,2.0,3.0,73,0.00,,---,0.00,VWS V14.01,2013-03-11 21:54:00,
2013-03-11 17:59:00,48.2,40.3,30.15,South,185,3.0,9.0,74,0.00,,---,0.00,VWS V14.01,2013-03-11 21:59:00,
2013-03-11 18:04:00,48.2,40.3,30.15,South,179,3.0,4.0,74,0.00,,---,0.00,VWS V14.01,2013-03-11 22:04:00,
2013-03-11 18:09:00,48.0,40.1,30.15,SE,133,3.0,4.0,74,0.00,,---,0.00,VWS V14.01,2013-03-11 22:09:00,
2013-03-11 18:14:00,47.9,40.4,30.15,South,190,1.0,3.0,75,0.00,,---,0.00,VWS V14.01,2013-03-11 22:14:00,
2013-03-11 18:19:00,47.9,40.7,30.15,SE,136,0.0,2.0,76,0.00,,---,0.00,VWS V14.01,2013-03-11 22:19:00,
2013-03-11 18:24:00,47.7,40.5,30.16,SSW,200,5.0,9.0,76,0.00,,---,0.00,VWS V14.01,2013-03-11 22:24:00,
2013-03-11 18:30:00,47.7,40.5,30.15,South,173,0.0,4.0,76,0.00,,---,0.00,VWS V14.01,2013-03-11 22:30:00,
2013-03-11 18:35:00,47.7,40.8,30.15,SSE,165,1.0,3.0,77,0.00,,---,0.00,VWS V14.01,2013-03-11 22:35:00,
2013-03-11 18:42:00,47.6,40.8,30.15,SSE,148,1.0,5.0,77,0.00,,---,0.00,VWS V14.01,2013-03-11 22:42:00,
2013-03-11 18:47:00,47.4,40.6,30.15,South,187,1.0,5.0,77,0.00,,---,0.00,VWS V14.01,2013-03-11 22:47:00,
2013-03-11 18:52:00,47.4,40.9,30.15,SSE,159,2.0,3.0,78,0.00,,---,0.00,VWS V14.01,2013-03-11 22:52:00,
2013-03-11 18:57:00,47.3,40.8,30.15,South,169,2.0,2.0,78,0.00,,---,0.00,VWS V14.01,2013-03-11 22:57:00,
2013-03-11 19:02:00,47.1,40.9,30.15,SE,143,0.0,4.0,79,0.00,,---,0.00,VWS V14.01,2013-03-11 23:02:00,
2013-03-11 19:07:00,47.1,40.9,30.15,SSE,158,1.0,2.0,79,0.00,,---,0.00,VWS V14.01,2013-03-11 23:07:00,
2013-03-11 19:12:00,47.0,40.8,30.15,North,9,0.0,2.0,79,0.00,,---,0.00,VWS V14.01,2013-03-11 23:12:00,
2013-03-11 19:17:00,47.0,41.2,30.15,South,171,0.0,2.0,80,0.00,,---,0.00,VWS V14.01,2013-03-11 23:17:00,
2013-03-11 19:22:00,47.0,41.2,30.15,SE,138,0.0,0.0,80,0.00,,---,0.00,VWS V14.01,2013-03-11 23:22:00,
2013-03-11 19:28:00,47.0,41.2,30.14,WSW,245,0.0,1.0,80,0.00,,---,0.00,VWS V14.01,2013-03-11 23:28:00,
2013-03-11 19:33:00,46.8,41.0,30.14,SSE,151,0.0,0.0,80,0.00,,---,0.00,VWS V14.01,2013-03-11 23:33:00,
2013-03-11 19:38:00,46.8,41.3,30.14,SE,127,0.0,2.0,81,0.00,,---,0.00,VWS V14.01,2013-03-11 23:38:00,
2013-03-11 19:43:00,46.8,41.3,30.14,SSE,165,0.0,2.0,81,0.00,,---,0.00,VWS V14.01,2013-03-11 23:43:00,
2013-03-11 19:49:00,46.8,41.6,30.15,SE,127,0.0,0.0,82,0.00,,---,0.00,VWS V14.01,2013-03-11 23:49:00,
2013-03-11 19:54:00,46.7,41.5,30.14,East,96,2.0,3.0,82,0.00,,---,0.00,VWS V14.01,2013-03-11 23:54:00,
2013-03-11 19:59:00,46.7,41.5,30.15,SSE,158,0.0,0.0,82,0.00,,---,0.00,VWS V14.01,2013-03-11 23:59:00,
2013-03-11 20:04:00,46.7,41.8,30.15,SSE,153,0.0,1.0,83,0.00,,---,0.00,VWS V14.01,2013-03-12 00:04:00,
2013-03-11 20:10:00,46.5,41.6,30.15,SSE,154,0.0,0.0,83,0.00,,---,0.00,VWS V14.01,2013-03-12 00:10:00,
2013-03-11 20:15:00,46.5,41.6,30.15,SSE,167,0.0,5.0,83,0.00,,---,0.00,VWS V14.01,2013-03-12 00:15:00,
2013-03-11 20:20:00,46.5,41.6,30.15,South,171,0.0,0.0,83,0.00,,---,0.00,VWS V14.01,2013-03-12 00:20:00,
2013-03-11 20:25:00,46.4,41.5,30.15,SSE,158,0.0,2.0,83,0.00,,---,0.00,VWS V14.01,2013-03-12 00:25:00,
2013-03-11 20:30:00,46.4,41.5,30.15,SSE,158,0.0,0.0,83,0.00,,---,0.00,VWS V14.01,2013-03-12 00:30:00,
2013-03-11 20:36:00,46.2,41.3,30.15,SSE,158,0.0,0.0,83,0.00,,---,0.00,VWS V14.01,2013-03-12 00:36:00,
2013-03-11 20:42:00,46.1,41.5,30.15,East,101,0.0,1.0,84,0.00,,---,0.00,VWS V14.01,2013-03-12 00:42:00,
2013-03-11 20:47:00,46.1,41.5,30.15,East,98,1.0,3.0,84,0.00,,---,0.00,VWS V14.01,2013-03-12 00:47:00,
2013-03-11 20:52:00,46.0,41.8,30.15,SSE,159,0.0,0.0,85,0.00,,---,0.00,VWS V14.01,2013-03-12 00:52:00,
2013-03-11 20:57:00,46.0,41.8,30.15,SSE,165,1.0,3.0,85,0.00,,---,0.00,VWS V14.01,2013-03-12 00:57:00,
2013-03-11 21:02:00,46.0,41.8,30.15,SSE,167,0.0,3.0,85,0.00,,---,0.00,VWS V14.01,2013-03-12 01:02:00,
2013-03-11 21:08:00,46.0,42.0,30.15,SE,144,2.0,2.0,86,0.00,,---,0.00,VWS V14.01,2013-03-12 01:08:00,
2013-03-11 21:13:00,46.0,42.0,30.15,SE,144,0.0,0.0,86,0.00,,---,0.00,VWS V14.01,2013-03-12 01:13:00,
2013-03-11 21:18:00,45.8,41.9,30.15,ESE,118,0.0,0.0,86,0.00,,---,0.00,VWS V14.01,2013-03-12 01:18:00,
2013-03-11 21:24:00,45.8,41.9,30.15,SSE,162,0.0,2.0,86,0.00,,---,0.00,VWS V14.01,2013-03-12 01:24:00,
2013-03-11 21:29:00,45.7,41.8,30.14,SSE,165,0.0,1.0,86,0.00,,---,0.00,VWS V14.01,2013-03-12 01:29:00,
2013-03-11 21:35:00,45.7,41.8,30.14,SE,135,1.0,4.0,86,0.00,,---,0.00,VWS V14.01,2013-03-12 01:35:00,
2013-03-11 21:40:00,45.7,41.8,30.14,SSE,161,0.0,3.0,86,0.00,,---,0.00,VWS V14.01,2013-03-12 01:40:00,
2013-03-11 21:45:00,45.5,41.6,30.14,ESE,112,0.0,1.0,86,0.00,,---,0.00,VWS V14.01,2013-03-12 01:45:00,
2013-03-11 21:50:00,45.5,41.9,30.14,SSE,165,0.0,0.0,87,0.00,,---,0.00,VWS V14.01,2013-03-12 01:50:00,
2013-03-11 21:55:00,45.5,41.9,30.14,SSE,163,0.0,1.0,87,0.00,,---,0.00,VWS V14.01,2013-03-12 01:55:00,
2013-03-11 22:01:00,45.5,41.9,30.14,ENE,60,0.0,0.0,87,0.00,,---,0.00,VWS V14.01,2013-03-12 02:01:00,
2013-03-11 22:07:00,45.4,41.8,30.14,SE,130,0.0,2.0,87,0.00,,---,0.00,VWS V14.01,2013-03-12 02:07:00,
2013-03-11 22:12:00,45.4,41.8,30.14,SE,134,0.0,3.0,87,0.00,,---,0.00,VWS V14.01,2013-03-12 02:12:00,
2013-03-11 22:17:00,45.4,41.8,30.14,East,88,0.0,0.0,87,0.00,,---,0.00,VWS V14.01,2013-03-12 02:17:00,
2013-03-11 22:22:00,45.4,41.8,30.13,SE,141,1.0,3.0,87,0.00,,---,0.00,VWS V14.01,2013-03-12 02:22:00,
2013-03-11 22:27:00,45.4,42.1,30.13,South,179,0.0,1.0,88,0.00,,---,0.00,VWS V14.01,2013-03-12 02:27:00,
2013-03-11 22:33:00,45.4,42.1,30.13,SW,233,0.0,0.0,88,0.00,,---,0.00,VWS V14.01,2013-03-12 02:33:00,
2013-03-11 22:38:00,45.4,42.1,30.13,South,169,0.0,0.0,88,0.00,,---,0.00,VWS V14.01,2013-03-12 02:38:00,
2013-03-11 22:43:00,45.4,42.1,30.13,SSE,161,2.0,2.0,88,0.00,,---,0.00,VWS V14.01,2013-03-12 02:43:00,
2013-03-11 22:48:00,45.4,42.1,30.13,South,186,0.0,2.0,88,0.00,,---,0.00,VWS V14.01,2013-03-12 02:48:00,
2013-03-11 22:53:00,45.4,42.3,30.12,SSW,200,1.0,1.0,89,0.00,,---,0.00,VWS V14.01,2013-03-12 02:53:00,
2013-03-11 22:59:00,45.4,42.3,30.12,South,171,0.0,3.0,89,0.00,,---,0.00,VWS V14.01,2013-03-12 02:59:00,
2013-03-11 23:05:00,45.5,42.5,30.12,SSE,168,3.0,3.0,89,0.00,,---,0.00,VWS V14.01,2013-03-12 03:05:00,
2013-03-11 23:12:00,45.5,42.5,30.12,South,188,1.0,2.0,89,0.00,,---,0.00,VWS V14.01,2013-03-12 03:12:00,
2013-03-11 23:17:00,45.5,42.5,30.11,SSE,159,1.0,1.0,89,0.00,,---,0.00,VWS V14.01,2013-03-12 03:17:00,
2013-03-11 23:23:00,45.7,42.9,30.12,SSE,167,0.0,3.0,90,0.00,,---,0.00,VWS V14.01,2013-03-12 03:23:00,
2013-03-11 23:29:00,45.7,42.9,30.11,ESE,105,0.0,3.0,90,0.00,,---,0.00,VWS V14.01,2013-03-12 03:29:00,
2013-03-11 23:34:00,45.8,43.0,30.11,South,172,3.0,4.0,90,0.00,,---,0.00,VWS V14.01,2013-03-12 03:34:00,
2013-03-11 23:40:00,46.0,43.5,30.11,SSE,165,3.0,4.0,91,0.00,,---,0.00,VWS V14.01,2013-03-12 03:40:00,
2013-03-11 23:45:00,46.0,43.5,30.11,WSW,257,0.0,4.0,91,0.00,,---,0.00,VWS V14.01,2013-03-12 03:45:00,
2013-03-11 23:50:00,46.0,43.5,30.11,SW,227,1.0,3.0,91,0.00,,---,0.00,VWS V14.01,2013-03-12 03:50:00,
2013-03-11 23:55:00,46.0,43.5,30.11,SSW,200,0.0,5.0,91,0.00,,---,0.00,VWS V14.01,2013-03-12 03:55:00,